createdAt,value
2023-05-25T00:00:57.357Z,13.30
2023-05-25T00:01:42.259Z,13.31
2023-05-25T00:02:42.418Z,13.28
2023-05-25T00:03:42.599Z,13.30
2023-05-25T00:04:42.575Z,13.31
2023-05-25T00:05:42.756Z,13.30
2023-05-25T00:06:42.247Z,13.28
2023-05-25T00:07:42.222Z,13.28
2023-05-25T00:08:42.109Z,13.28
2023-05-25T00:09:42.119Z,13.27
2023-05-25T00:10:42.142Z,13.26
2023-05-25T00:11:42.097Z,13.27
2023-05-25T00:12:42.370Z,13.23
2023-05-25T00:13:42.101Z,13.20
2023-05-25T00:14:42.021Z,13.16
2023-05-25T00:15:42.403Z,13.13
2023-05-25T00:16:42.400Z,13.08
2023-05-25T00:17:42.231Z,13.05
2023-05-25T00:18:41.956Z,13.03
2023-05-25T00:19:41.936Z,13.01
2023-05-25T00:20:41.970Z,12.98
2023-05-25T00:21:42.100Z,12.93
2023-05-25T00:22:42.041Z,12.87
2023-05-25T00:23:41.888Z,12.84
2023-05-25T00:24:42.067Z,12.81
2023-05-25T00:25:42.034Z,12.80
2023-05-25T00:26:41.838Z,12.73
2023-05-25T00:27:41.950Z,12.72
2023-05-25T00:28:41.952Z,12.69
2023-05-25T00:29:41.822Z,12.65
2023-05-25T00:30:41.986Z,12.62
2023-05-25T00:31:41.822Z,12.61
2023-05-25T00:32:41.908Z,12.55
2023-05-25T00:33:41.786Z,12.53
2023-05-25T00:34:41.725Z,12.51
2023-05-25T00:35:41.861Z,12.48
2023-05-25T00:36:41.698Z,12.43
2023-05-25T00:37:41.795Z,12.39
2023-05-25T00:38:41.676Z,12.36
2023-05-25T00:39:41.788Z,12.35
2023-05-25T00:40:41.637Z,12.33
2023-05-25T00:41:41.841Z,12.29
2023-05-25T00:42:41.750Z,12.30
2023-05-25T00:43:41.597Z,12.29
2023-05-25T00:44:41.599Z,12.29
2023-05-25T00:45:41.701Z,12.25
2023-05-25T00:46:41.684Z,12.23
2023-05-25T00:47:41.900Z,12.28
2023-05-25T00:48:41.575Z,12.23
2023-05-25T00:49:41.531Z,12.21
2023-05-25T00:50:41.536Z,12.15
2023-05-25T00:51:41.494Z,12.14
2023-05-25T00:52:41.746Z,12.12
2023-05-25T00:53:41.489Z,12.10
2023-05-25T00:54:41.491Z,12.05
2023-05-25T00:55:41.599Z,12.03
2023-05-25T00:56:41.612Z,12.00
2023-05-25T00:57:41.469Z,11.99
2023-05-25T00:58:41.486Z,11.95
2023-05-25T00:59:41.533Z,11.91
2023-05-25T01:00:41.401Z,11.91
2023-05-25T01:01:41.486Z,11.89
2023-05-25T01:02:41.459Z,11.93
2023-05-25T01:03:41.663Z,11.95
2023-05-25T01:04:41.339Z,11.97
2023-05-25T01:05:41.516Z,12.03
2023-05-25T01:06:41.305Z,12.08
2023-05-25T01:07:41.585Z,12.12
2023-05-25T01:08:41.405Z,12.15
2023-05-25T01:09:41.468Z,12.17
2023-05-25T01:10:41.300Z,12.23
2023-05-25T01:11:41.213Z,12.26
2023-05-25T01:12:41.418Z,12.29
2023-05-25T01:13:41.289Z,12.33
2023-05-25T01:14:41.292Z,12.36
2023-05-25T01:15:41.833Z,12.37
2023-05-25T01:16:41.345Z,12.40
2023-05-25T01:17:41.165Z,12.44
2023-05-25T01:18:41.201Z,12.45
2023-05-25T01:19:41.190Z,12.47
2023-05-25T01:20:41.140Z,12.48
2023-05-25T01:21:41.252Z,12.50
2023-05-25T01:22:41.105Z,12.53
2023-05-25T01:23:41.265Z,12.55
2023-05-25T01:24:41.091Z,12.57
2023-05-25T01:25:41.328Z,12.57
2023-05-25T01:26:41.145Z,12.58
2023-05-25T01:27:41.003Z,12.62
2023-05-25T01:28:41.062Z,12.63
2023-05-25T01:29:41.174Z,12.65
2023-05-25T01:30:40.968Z,12.66
2023-05-25T01:31:41.582Z,12.69
2023-05-25T01:32:41.111Z,12.69
2023-05-25T01:33:41.149Z,12.70
2023-05-25T01:34:40.988Z,12.72
2023-05-25T01:35:41.609Z,12.72
2023-05-25T01:36:41.068Z,12.72
2023-05-25T01:37:40.870Z,12.69
2023-05-25T01:38:40.889Z,12.68
2023-05-25T01:39:40.896Z,12.68
2023-05-25T01:40:40.852Z,12.68
2023-05-25T01:41:40.931Z,12.66
2023-05-25T01:42:40.814Z,12.66
2023-05-25T01:43:40.929Z,12.66
2023-05-25T01:44:40.790Z,12.66
2023-05-25T01:45:40.768Z,12.68
2023-05-25T01:46:40.916Z,12.68
2023-05-25T01:47:40.887Z,12.69
2023-05-25T01:48:40.976Z,12.68
2023-05-25T01:49:40.729Z,12.68
2023-05-25T01:50:40.787Z,12.68
2023-05-25T01:51:40.827Z,12.66
2023-05-25T01:52:40.777Z,12.65
2023-05-25T01:53:40.675Z,12.65
2023-05-25T01:54:40.645Z,12.62
2023-05-25T01:55:40.623Z,12.62
2023-05-25T01:56:40.657Z,12.61
2023-05-25T01:57:40.914Z,12.58
2023-05-25T01:58:40.659Z,12.55
2023-05-25T01:59:40.574Z,12.53
2023-05-25T02:00:40.549Z,12.53
2023-05-25T02:01:40.631Z,12.53
2023-05-25T02:02:40.674Z,12.51
2023-05-25T02:03:40.545Z,12.48
2023-05-25T02:04:40.688Z,12.48
2023-05-25T02:05:40.512Z,12.45
2023-05-25T02:06:40.513Z,12.45
2023-05-25T02:07:40.579Z,12.45
2023-05-25T02:08:40.456Z,12.51
2023-05-25T02:09:40.507Z,12.54
2023-05-25T02:10:40.436Z,12.55
2023-05-25T02:11:40.617Z,12.55
2023-05-25T02:12:40.506Z,12.58
2023-05-25T02:13:40.577Z,12.62
2023-05-25T02:14:40.658Z,12.63
2023-05-25T02:15:40.550Z,12.65
2023-05-25T02:16:40.349Z,12.66
2023-05-25T02:17:40.644Z,12.66
2023-05-25T02:18:40.356Z,12.65
2023-05-25T02:19:40.319Z,12.68
2023-05-25T02:20:40.381Z,12.65
2023-05-25T02:21:40.486Z,12.65
2023-05-25T02:22:40.422Z,12.68
2023-05-25T02:23:40.273Z,12.66
2023-05-25T02:24:40.371Z,12.69
2023-05-25T02:25:40.619Z,12.68
2023-05-25T02:26:40.350Z,12.69
2023-05-25T02:27:40.340Z,12.69
2023-05-25T02:28:40.358Z,12.69
2023-05-25T02:29:40.201Z,12.69
2023-05-25T02:30:40.168Z,12.70
2023-05-25T02:31:40.251Z,12.69
2023-05-25T02:32:40.466Z,12.72
2023-05-25T02:33:40.199Z,12.73
2023-05-25T02:34:40.105Z,12.70
2023-05-25T02:35:40.204Z,12.73
2023-05-25T02:36:40.095Z,12.73
2023-05-25T02:37:40.127Z,12.73
2023-05-25T02:38:40.141Z,12.72
2023-05-25T02:39:40.178Z,12.72
2023-05-25T02:40:40.131Z,12.70
2023-05-25T02:41:40.044Z,12.68
2023-05-25T02:42:40.022Z,12.66
2023-05-25T02:43:40.121Z,12.66
2023-05-25T02:44:39.982Z,12.66
2023-05-25T02:45:39.951Z,12.68
2023-05-25T02:46:39.947Z,12.66
2023-05-25T02:47:39.990Z,12.69
2023-05-25T02:48:40.073Z,12.65
2023-05-25T02:49:39.919Z,12.69
2023-05-25T02:50:39.895Z,12.72
2023-05-25T02:51:39.898Z,12.75
2023-05-25T02:52:39.869Z,12.76
2023-05-25T02:53:39.873Z,12.76
2023-05-25T02:54:39.931Z,12.78
2023-05-25T02:55:39.882Z,12.81
2023-05-25T02:56:39.815Z,12.81
2023-05-25T02:57:39.987Z,12.81
2023-05-25T02:58:39.800Z,12.87
2023-05-25T02:59:39.972Z,12.90
2023-05-25T03:00:39.803Z,12.93
2023-05-25T03:01:39.877Z,12.94
2023-05-25T03:02:40.083Z,12.95
2023-05-25T03:03:39.752Z,13.02
2023-05-25T03:04:39.788Z,13.03
2023-05-25T03:05:39.862Z,13.06
2023-05-25T03:06:39.720Z,13.08
2023-05-25T03:07:39.674Z,13.09
2023-05-25T03:08:39.805Z,13.06
2023-05-25T03:09:39.704Z,13.11
2023-05-25T03:10:39.709Z,13.11
2023-05-25T03:11:39.874Z,13.12
2023-05-25T03:12:39.701Z,13.16
2023-05-25T03:13:39.867Z,13.16
2023-05-25T03:14:39.650Z,13.19
2023-05-25T03:15:39.663Z,13.17
2023-05-25T03:16:39.565Z,13.19
2023-05-25T03:17:39.628Z,13.17
2023-05-25T03:18:39.516Z,13.19
2023-05-25T03:19:39.665Z,13.20
2023-05-25T03:20:39.786Z,13.21
2023-05-25T03:21:39.547Z,13.24
2023-05-25T03:22:39.456Z,13.26
2023-05-25T03:23:39.563Z,13.28
2023-05-25T03:24:39.818Z,13.30
2023-05-25T03:25:39.428Z,13.31
2023-05-25T03:26:39.442Z,13.31
2023-05-25T03:27:39.547Z,13.31
2023-05-25T03:28:39.379Z,13.31
2023-05-25T03:29:39.483Z,13.36
2023-05-25T03:30:39.344Z,13.33
2023-05-25T03:31:39.368Z,13.36
2023-05-25T03:32:39.424Z,13.37
2023-05-25T03:33:39.556Z,13.39
2023-05-25T03:34:39.285Z,13.40
2023-05-25T03:35:39.331Z,13.42
2023-05-25T03:36:39.382Z,13.40
2023-05-25T03:37:39.245Z,13.43
2023-05-25T03:38:39.365Z,13.45
2023-05-25T03:39:39.209Z,13.45
2023-05-25T03:40:39.317Z,13.43
2023-05-25T03:41:39.188Z,13.42
2023-05-25T03:42:39.180Z,13.40
2023-05-25T03:43:39.200Z,13.42
2023-05-25T03:44:41.080Z,13.39
2023-05-25T03:45:39.283Z,13.39
2023-05-25T03:46:39.474Z,13.42
2023-05-25T03:47:39.231Z,13.42
2023-05-25T03:48:39.077Z,13.45
2023-05-25T03:49:39.220Z,13.47
2023-05-25T03:50:39.135Z,13.47
2023-05-25T03:51:39.198Z,13.45
2023-05-25T03:52:39.042Z,13.49
2023-05-25T03:53:39.016Z,13.46
2023-05-25T03:54:39.040Z,13.46
2023-05-25T03:55:39.014Z,13.47
2023-05-25T03:56:39.150Z,13.52
2023-05-25T03:57:39.002Z,13.52
2023-05-25T03:58:38.948Z,13.52
2023-05-25T03:59:38.940Z,13.50
2023-05-25T04:00:38.919Z,13.49
2023-05-25T04:01:39.289Z,13.54
2023-05-25T04:02:39.203Z,13.52
2023-05-25T04:03:39.044Z,13.52
2023-05-25T04:04:39.138Z,13.50
2023-05-25T04:05:38.865Z,13.50
2023-05-25T04:06:39.174Z,13.49
2023-05-25T04:07:39.171Z,13.49
2023-05-25T04:08:39.019Z,13.49
2023-05-25T04:09:38.851Z,13.49
2023-05-25T04:10:38.761Z,13.50
2023-05-25T04:11:38.860Z,13.50
2023-05-25T04:12:38.814Z,13.50
2023-05-25T04:13:39.097Z,13.49
2023-05-25T04:14:38.743Z,13.52
2023-05-25T04:15:38.754Z,13.49
2023-05-25T04:16:38.760Z,13.50
2023-05-25T04:17:39.627Z,13.49
2023-05-25T04:18:39.506Z,13.49
2023-05-25T04:19:38.727Z,13.47
2023-05-25T04:20:38.865Z,13.49
2023-05-25T04:21:38.632Z,13.52
2023-05-25T04:22:38.906Z,13.52
2023-05-25T04:23:38.990Z,13.55
2023-05-25T04:24:38.653Z,13.57
2023-05-25T04:25:38.694Z,13.58
2023-05-25T04:26:38.743Z,13.58
2023-05-25T04:27:38.577Z,13.61
2023-05-25T04:28:38.704Z,13.62
2023-05-25T04:29:38.647Z,13.62
2023-05-25T04:30:38.726Z,13.65
2023-05-25T04:31:38.579Z,13.70
2023-05-25T04:32:38.509Z,13.67
2023-05-25T04:33:38.664Z,13.67
2023-05-25T04:34:38.585Z,13.67
2023-05-25T04:35:38.708Z,13.71
2023-05-25T04:36:38.498Z,13.75
2023-05-25T04:37:38.585Z,13.76
2023-05-25T04:38:38.453Z,13.76
2023-05-25T04:39:38.541Z,13.79
2023-05-25T04:40:38.386Z,13.82
2023-05-25T04:41:38.608Z,13.82
2023-05-25T04:42:38.393Z,13.85
2023-05-25T04:43:43.855Z,13.87
2023-05-25T04:44:38.445Z,13.93
2023-05-25T04:45:38.637Z,13.97
2023-05-25T04:46:38.422Z,14.03
2023-05-25T04:47:38.375Z,14.08
2023-05-25T04:48:38.412Z,14.15
2023-05-25T04:49:38.588Z,14.19
2023-05-25T04:50:38.373Z,14.26
2023-05-25T04:51:38.281Z,14.33
2023-05-25T04:52:38.260Z,14.37
2023-05-25T04:53:38.255Z,14.34
2023-05-25T04:54:38.466Z,14.31
2023-05-25T04:55:38.315Z,14.31
2023-05-25T04:56:38.279Z,14.31
2023-05-25T04:57:38.186Z,14.37
2023-05-25T04:58:38.178Z,14.51
2023-05-25T04:59:38.175Z,14.63
2023-05-25T05:00:38.319Z,14.68
2023-05-25T05:01:38.428Z,14.63
2023-05-25T05:02:38.158Z,14.62
2023-05-25T05:03:38.333Z,14.66
2023-05-25T05:04:38.219Z,14.66
2023-05-25T05:05:38.367Z,14.59
2023-05-25T05:06:38.121Z,14.49
2023-05-25T05:07:38.262Z,14.53
2023-05-25T05:08:38.070Z,14.58
2023-05-25T05:09:38.017Z,14.61
2023-05-25T05:10:38.166Z,14.62
2023-05-25T05:11:38.009Z,14.59
2023-05-25T05:12:37.987Z,14.55
2023-05-25T05:13:38.032Z,14.48
2023-05-25T05:14:38.187Z,14.33
2023-05-25T05:15:38.031Z,14.19
2023-05-25T05:16:38.018Z,14.16
2023-05-25T05:17:37.930Z,14.12
2023-05-25T05:18:38.112Z,14.11
2023-05-25T05:19:37.950Z,14.04
2023-05-25T05:20:38.336Z,14.07
2023-05-25T05:21:37.962Z,14.03
2023-05-25T05:22:37.847Z,14.03
2023-05-25T05:23:38.088Z,14.04
2023-05-25T05:24:37.825Z,14.05
2023-05-25T05:25:37.825Z,14.08
2023-05-25T05:26:48.280Z,14.07
2023-05-25T05:27:37.969Z,14.13
2023-05-25T05:28:37.865Z,14.18
2023-05-25T05:29:38.036Z,14.20
2023-05-25T05:30:37.795Z,14.25
2023-05-25T05:31:38.103Z,14.30
2023-05-25T05:32:37.787Z,14.31
2023-05-25T05:33:37.838Z,14.36
2023-05-25T05:34:37.815Z,14.40
2023-05-25T05:35:37.736Z,14.44
2023-05-25T05:36:45.322Z,14.43
2023-05-25T05:37:37.651Z,14.41
2023-05-25T05:38:39.945Z,14.44
2023-05-25T05:39:37.624Z,14.49
2023-05-25T05:40:37.792Z,14.51
2023-05-25T05:41:37.638Z,14.55
2023-05-25T05:42:37.562Z,14.58
2023-05-25T05:43:37.663Z,14.63
2023-05-25T05:44:37.509Z,14.73
2023-05-25T05:45:37.629Z,14.77
2023-05-25T05:46:37.558Z,14.74
2023-05-25T05:47:37.580Z,14.82
2023-05-25T05:48:37.492Z,14.90
2023-05-25T05:49:37.823Z,15.00
2023-05-25T05:50:38.610Z,15.12
2023-05-25T05:51:37.456Z,15.29
2023-05-25T05:52:37.477Z,15.44
2023-05-25T05:53:37.658Z,15.44
2023-05-25T05:54:37.577Z,15.66
2023-05-25T05:55:37.504Z,16.83
2023-05-25T05:56:38.210Z,17.41
2023-05-25T05:57:37.362Z,17.57
2023-05-25T05:58:37.439Z,18.39
2023-05-25T05:59:37.427Z,18.98
2023-05-25T06:00:37.336Z,19.75
2023-05-25T06:01:37.357Z,20.34
2023-05-25T06:02:40.014Z,21.11
2023-05-25T06:03:37.467Z,21.43
2023-05-25T06:04:37.346Z,22.14
2023-05-25T06:05:37.324Z,22.07
2023-05-25T06:06:37.216Z,21.84
2023-05-25T06:07:37.214Z,20.56
2023-05-25T06:08:37.273Z,20.22
2023-05-25T06:09:37.315Z,20.50
2023-05-25T06:10:37.255Z,20.92
2023-05-25T06:11:37.283Z,20.77
2023-05-25T06:12:37.194Z,21.05
2023-05-25T06:13:37.321Z,21.54
2023-05-25T06:14:37.232Z,21.84
2023-05-25T06:15:37.314Z,21.94
2023-05-25T06:16:37.170Z,21.32
2023-05-25T06:17:37.128Z,21.19
2023-05-25T06:18:37.120Z,21.48
2023-05-25T06:19:37.154Z,21.83
2023-05-25T06:20:37.162Z,21.69
2023-05-25T06:21:37.045Z,22.01
2023-05-25T06:22:37.135Z,21.88
2023-05-25T06:23:37.116Z,21.72
2023-05-25T06:24:37.251Z,21.74
2023-05-25T06:25:37.007Z,22.28
2023-05-25T06:26:37.139Z,22.61
2023-05-25T06:27:37.046Z,22.06
2023-05-25T06:28:37.366Z,21.60
2023-05-25T06:29:37.097Z,21.15
2023-05-25T06:30:37.158Z,20.70
2023-05-25T06:31:37.043Z,20.17
2023-05-25T06:32:36.891Z,20.02
2023-05-25T06:33:36.994Z,19.74
2023-05-25T06:34:38.277Z,18.86
2023-05-25T06:35:36.850Z,18.13
2023-05-25T06:36:36.805Z,17.68
2023-05-25T06:37:36.958Z,17.32
2023-05-25T06:38:36.940Z,16.92
2023-05-25T06:39:37.092Z,16.59
2023-05-25T06:40:37.647Z,16.29
2023-05-25T06:41:37.012Z,16.18
2023-05-25T06:42:36.762Z,16.17
2023-05-25T06:43:37.106Z,16.18
2023-05-25T06:44:36.938Z,16.22
2023-05-25T06:45:36.707Z,16.21
2023-05-25T06:46:36.732Z,16.22
2023-05-25T06:47:36.718Z,16.31
2023-05-25T06:48:36.702Z,16.44
2023-05-25T06:49:36.773Z,16.43
2023-05-25T06:50:36.657Z,16.37
2023-05-25T06:51:36.660Z,16.40
2023-05-25T06:52:36.586Z,16.59
2023-05-25T06:53:36.604Z,16.69
2023-05-25T06:54:36.670Z,16.72
2023-05-25T06:55:36.593Z,16.86
2023-05-25T06:56:36.556Z,17.42
2023-05-25T06:57:36.636Z,17.75
2023-05-25T06:58:36.548Z,17.65
2023-05-25T06:59:36.794Z,17.73
2023-05-25T07:00:36.506Z,18.45
2023-05-25T07:01:36.807Z,19.24
2023-05-25T07:02:36.518Z,19.59
2023-05-25T07:03:36.677Z,20.33
2023-05-25T07:04:36.677Z,20.74
2023-05-25T07:05:36.428Z,20.59
2023-05-25T07:06:36.615Z,20.92
2023-05-25T07:07:36.468Z,21.70
2023-05-25T07:08:36.538Z,21.60
2023-05-25T07:09:36.764Z,21.88
2023-05-25T07:10:36.503Z,21.97
2023-05-25T07:11:36.470Z,22.52
2023-05-25T07:12:36.404Z,22.34
2023-05-25T07:13:36.468Z,21.17
2023-05-25T07:14:36.383Z,20.40
2023-05-25T07:15:36.386Z,19.75
2023-05-25T07:16:36.576Z,20.10
2023-05-25T07:17:36.541Z,20.33
2023-05-25T07:18:36.304Z,20.74
2023-05-25T07:19:36.320Z,21.62
2023-05-25T07:20:36.275Z,21.41
2023-05-25T07:21:36.260Z,21.72
2023-05-25T07:22:36.200Z,22.15
2023-05-25T07:23:36.186Z,21.96
2023-05-25T07:24:36.297Z,22.52
2023-05-25T07:25:36.376Z,22.81
2023-05-25T07:26:36.222Z,22.77
2023-05-25T07:27:36.198Z,23.13
2023-05-25T07:28:36.203Z,23.13
2023-05-25T07:29:36.219Z,22.56
2023-05-25T07:30:36.191Z,21.14
2023-05-25T07:31:36.142Z,20.89
2023-05-25T07:32:36.233Z,20.95
2023-05-25T07:33:36.168Z,20.39
2023-05-25T07:34:36.240Z,19.72
2023-05-25T07:35:36.083Z,19.26
2023-05-25T07:36:36.284Z,18.88
2023-05-25T07:37:36.146Z,18.66
2023-05-25T07:38:35.980Z,18.58
2023-05-25T07:39:35.986Z,18.81
2023-05-25T07:40:36.213Z,18.94
2023-05-25T07:41:36.040Z,18.89
2023-05-25T07:42:36.093Z,18.76
2023-05-25T07:43:35.927Z,18.64
2023-05-25T07:44:36.053Z,18.76
2023-05-25T07:45:35.910Z,18.73
2023-05-25T07:46:35.971Z,18.74
2023-05-25T07:47:36.157Z,18.86
2023-05-25T07:48:35.881Z,19.16
2023-05-25T07:49:35.862Z,19.11
2023-05-25T07:50:35.880Z,19.39
2023-05-25T07:51:36.158Z,19.74
2023-05-25T07:52:35.972Z,20.15
2023-05-25T07:53:35.944Z,20.66
2023-05-25T07:54:35.810Z,21.88
2023-05-25T07:55:35.793Z,22.28
2023-05-25T07:56:35.935Z,22.26
2023-05-25T07:57:35.893Z,22.76
2023-05-25T07:58:35.881Z,22.88
2023-05-25T07:59:35.751Z,22.52
2023-05-25T08:00:35.683Z,22.68
2023-05-25T08:01:35.704Z,23.18
2023-05-25T08:02:36.043Z,22.68
2023-05-25T08:03:48.122Z,23.13
2023-05-25T08:04:36.134Z,23.25
2023-05-25T08:05:35.657Z,22.31
2023-05-25T08:06:35.878Z,22.43
2023-05-25T08:07:35.840Z,22.59
2023-05-25T08:08:35.650Z,23.34
2023-05-25T08:09:35.679Z,23.59
2023-05-25T08:10:35.620Z,22.58
2023-05-25T08:11:35.704Z,22.30
2023-05-25T08:12:47.674Z,22.12
2023-05-25T08:13:35.848Z,21.20
2023-05-25T08:14:35.590Z,20.55
2023-05-25T08:15:35.491Z,20.56
2023-05-25T08:16:35.567Z,20.30
2023-05-25T08:17:35.745Z,19.85
2023-05-25T08:18:35.675Z,19.64
2023-05-25T08:19:35.730Z,19.42
2023-05-25T08:20:35.684Z,19.34
2023-05-25T08:21:35.407Z,18.94
2023-05-25T08:22:35.410Z,18.73
2023-05-25T08:23:35.475Z,18.89
2023-05-25T08:24:35.570Z,19.11
2023-05-25T08:25:35.650Z,19.97
2023-05-25T08:26:45.876Z,20.19
2023-05-25T08:27:36.218Z,20.75
2023-05-25T08:28:35.549Z,20.73
2023-05-25T08:29:35.400Z,20.68
2023-05-25T08:30:35.376Z,20.75
2023-05-25T08:31:35.558Z,20.56
2023-05-25T08:32:35.379Z,20.49
2023-05-25T08:33:35.408Z,20.40
2023-05-25T08:34:35.240Z,21.01
2023-05-25T08:35:35.401Z,20.98
2023-05-25T08:36:35.224Z,21.19
2023-05-25T08:37:35.389Z,22.31
2023-05-25T08:38:35.167Z,22.83
2023-05-25T08:39:35.203Z,22.92
2023-05-25T08:40:35.448Z,22.62
2023-05-25T08:41:35.419Z,23.11
2023-05-25T08:42:35.267Z,24.19
2023-05-25T08:43:35.109Z,24.66
2023-05-25T08:44:35.093Z,24.96
2023-05-25T08:45:37.077Z,24.26
2023-05-25T08:46:35.330Z,23.34
2023-05-25T08:47:35.087Z,23.20
2023-05-25T08:48:41.105Z,23.62
2023-05-25T08:49:35.094Z,24.26
2023-05-25T08:50:35.118Z,24.74
2023-05-25T08:51:35.074Z,24.78
2023-05-25T08:52:35.101Z,24.79
2023-05-25T08:53:34.997Z,24.36
2023-05-25T08:54:35.045Z,23.58
2023-05-25T08:55:35.066Z,23.52
2023-05-25T08:56:37.000Z,23.29
2023-05-25T08:57:35.024Z,23.49
2023-05-25T08:58:35.011Z,24.00
2023-05-25T08:59:34.905Z,24.41
2023-05-25T09:00:34.891Z,24.28
2023-05-25T09:01:34.954Z,24.03
2023-05-25T09:02:35.073Z,24.24
2023-05-25T09:03:35.030Z,24.69
2023-05-25T09:04:34.943Z,24.55
2023-05-25T09:05:36.860Z,24.82
2023-05-25T09:06:34.798Z,25.07
2023-05-25T09:07:34.862Z,25.62
2023-05-25T09:08:34.880Z,25.91
2023-05-25T09:09:34.811Z,25.89
2023-05-25T09:10:34.872Z,25.61
2023-05-25T09:11:39.765Z,25.93
2023-05-25T09:12:35.051Z,25.81
2023-05-25T09:13:34.732Z,25.85
2023-05-25T09:14:34.715Z,25.67
2023-05-25T09:15:34.740Z,25.25
2023-05-25T09:16:34.974Z,25.18
2023-05-25T09:17:38.046Z,25.49
2023-05-25T09:18:35.029Z,25.67
2023-05-25T09:19:34.743Z,25.86
2023-05-25T09:20:34.779Z,25.88
2023-05-25T09:21:34.775Z,25.66
2023-05-25T09:22:34.731Z,25.39
2023-05-25T09:23:34.587Z,25.83
2023-05-25T09:24:34.722Z,25.41
2023-05-25T09:25:34.748Z,25.25
2023-05-25T09:26:34.547Z,24.61
2023-05-25T09:27:34.845Z,24.38
2023-05-25T09:28:34.598Z,24.18
2023-05-25T09:29:34.506Z,24.44
2023-05-25T09:30:34.583Z,24.86
2023-05-25T09:31:34.497Z,25.03
2023-05-25T09:32:34.804Z,25.58
2023-05-25T09:33:36.246Z,25.52
2023-05-25T09:34:34.450Z,24.96
2023-05-25T09:35:34.392Z,25.54
2023-05-25T09:36:34.684Z,25.43
2023-05-25T09:37:34.678Z,25.36
2023-05-25T09:38:34.585Z,25.48
2023-05-25T09:39:34.582Z,25.68
2023-05-25T09:40:34.676Z,25.70
2023-05-25T09:41:34.440Z,25.33
2023-05-25T09:42:34.940Z,25.37
2023-05-25T09:43:44.703Z,25.21
2023-05-25T09:44:34.395Z,25.29
2023-05-25T09:45:35.991Z,25.25
2023-05-25T09:46:34.334Z,25.22
2023-05-25T09:47:34.450Z,25.52
2023-05-25T09:48:34.380Z,25.34
2023-05-25T09:49:34.415Z,25.31
2023-05-25T09:50:34.365Z,25.21
2023-05-25T09:51:34.531Z,25.26
2023-05-25T09:52:34.318Z,25.66
2023-05-25T09:53:34.284Z,25.70
2023-05-25T09:54:34.282Z,25.43
2023-05-25T09:55:51.577Z,25.44
2023-05-25T09:56:34.278Z,25.34
2023-05-25T09:57:34.120Z,25.76
2023-05-25T09:58:34.218Z,25.95
2023-05-25T09:59:34.174Z,25.95
2023-05-25T10:00:34.290Z,25.54
2023-05-25T10:01:34.206Z,25.51
2023-05-25T10:02:34.103Z,25.43
2023-05-25T10:03:34.242Z,25.44
2023-05-25T10:04:34.038Z,25.63
2023-05-25T10:05:34.101Z,25.70
2023-05-25T10:06:34.059Z,25.77
2023-05-25T10:07:34.169Z,25.52
2023-05-25T10:08:34.093Z,25.58
2023-05-25T10:09:34.255Z,25.76
2023-05-25T10:10:34.022Z,25.66
2023-05-25T10:11:34.122Z,25.70
2023-05-25T10:12:33.953Z,25.78
2023-05-25T10:13:34.205Z,26.01
2023-05-25T10:14:34.009Z,26.48
2023-05-25T10:15:34.104Z,26.45
2023-05-25T10:16:33.952Z,26.22
2023-05-25T10:17:33.891Z,26.31
2023-05-25T10:18:34.111Z,26.64
2023-05-25T10:19:33.932Z,26.74
2023-05-25T10:20:37.159Z,26.93
2023-05-25T10:21:33.816Z,26.81
2023-05-25T10:22:34.006Z,26.06
2023-05-25T10:23:33.787Z,25.71
2023-05-25T10:24:33.860Z,26.16
2023-05-25T10:25:33.760Z,26.24
2023-05-25T10:26:33.972Z,26.33
2023-05-25T10:27:33.811Z,26.30
2023-05-25T10:28:33.726Z,26.03
2023-05-25T10:29:33.792Z,25.89
2023-05-25T10:30:33.686Z,25.80
2023-05-25T10:31:33.858Z,26.27
2023-05-25T10:32:33.716Z,26.51
2023-05-25T10:33:33.857Z,26.71
2023-05-25T10:34:33.699Z,26.88
2023-05-25T10:35:46.671Z,27.04
2023-05-25T10:36:33.649Z,26.88
2023-05-25T10:37:34.251Z,26.98
2023-05-25T10:38:34.262Z,27.04
2023-05-25T10:39:34.982Z,26.89
2023-05-25T10:40:34.312Z,26.59
2023-05-25T10:41:34.624Z,26.73
2023-05-25T10:42:34.620Z,26.56
2023-05-25T10:43:34.266Z,26.24
2023-05-25T10:44:34.917Z,26.18
2023-05-25T10:45:34.877Z,26.30
2023-05-25T10:46:33.674Z,26.55
2023-05-25T10:47:33.895Z,26.81
2023-05-25T10:48:33.613Z,26.70
2023-05-25T10:49:33.609Z,26.48
2023-05-25T10:50:33.437Z,26.37
2023-05-25T10:51:33.771Z,26.49
2023-05-25T10:52:33.383Z,26.66
2023-05-25T10:53:33.512Z,26.36
2023-05-25T10:54:33.764Z,26.23
2023-05-25T10:55:33.476Z,26.51
2023-05-25T10:56:33.383Z,26.93
2023-05-25T10:57:33.329Z,26.68
2023-05-25T10:58:33.341Z,26.91
2023-05-25T10:59:33.453Z,27.07
2023-05-25T11:00:33.416Z,26.59
2023-05-25T11:01:33.876Z,26.45
2023-05-25T11:02:33.464Z,26.64
2023-05-25T11:03:33.475Z,26.59
2023-05-25T11:04:33.350Z,26.89
2023-05-25T11:05:33.581Z,27.29
2023-05-25T11:06:33.299Z,27.33
2023-05-25T11:07:33.230Z,26.96
2023-05-25T11:08:33.306Z,26.85
2023-05-25T11:09:33.501Z,26.64
2023-05-25T11:10:33.424Z,26.36
2023-05-25T11:11:33.164Z,26.63
2023-05-25T11:12:33.326Z,26.66
2023-05-25T11:13:33.734Z,26.83
2023-05-25T11:14:33.287Z,26.89
2023-05-25T11:15:33.353Z,26.92
2023-05-25T11:16:33.139Z,27.13
2023-05-25T11:17:33.144Z,26.79
2023-05-25T11:18:33.117Z,26.70
2023-05-25T11:19:33.168Z,26.79
2023-05-25T11:20:33.197Z,27.15
2023-05-25T11:21:33.157Z,27.63
2023-05-25T11:22:32.993Z,27.71
2023-05-25T11:23:32.999Z,27.64
2023-05-25T11:24:33.113Z,27.53
2023-05-25T11:25:34.756Z,27.29
2023-05-25T11:26:33.005Z,27.44
2023-05-25T11:27:33.186Z,27.43
2023-05-25T11:28:32.989Z,27.43
2023-05-25T11:29:32.983Z,27.47
2023-05-25T11:30:33.141Z,27.63
2023-05-25T11:31:38.815Z,27.48
2023-05-25T11:32:33.021Z,27.57
2023-05-25T11:33:32.874Z,27.75
2023-05-25T11:34:32.884Z,28.19
2023-05-25T11:35:32.841Z,27.95
2023-05-25T11:36:33.104Z,27.75
2023-05-25T11:37:32.825Z,27.47
2023-05-25T11:38:32.999Z,27.43
2023-05-25T11:39:32.875Z,27.41
2023-05-25T11:40:33.367Z,27.20
2023-05-25T11:41:32.954Z,26.78
2023-05-25T11:42:33.040Z,26.46
2023-05-25T11:43:32.854Z,26.23
2023-05-25T11:44:32.741Z,26.30
2023-05-25T11:45:32.705Z,26.33
2023-05-25T11:46:33.017Z,26.56
2023-05-25T11:47:34.633Z,26.11
2023-05-25T11:48:32.732Z,25.36
2023-05-25T11:49:32.624Z,25.29
2023-05-25T11:50:32.717Z,24.81
2023-05-25T11:51:32.700Z,24.50
2023-05-25T11:52:32.796Z,24.36
2023-05-25T11:53:34.336Z,24.09
2023-05-25T11:54:32.756Z,23.92
2023-05-25T11:55:32.855Z,23.79
2023-05-25T11:56:35.472Z,23.67
2023-05-25T11:57:32.721Z,23.74
2023-05-25T11:58:32.562Z,23.63
2023-05-25T11:59:32.854Z,23.63
2023-05-25T12:00:32.678Z,23.47
2023-05-25T12:01:32.505Z,23.37
2023-05-25T12:02:32.635Z,23.36
2023-05-25T12:03:32.627Z,23.54
2023-05-25T12:04:32.635Z,23.67
2023-05-25T12:05:32.578Z,23.85
2023-05-25T12:06:32.541Z,23.92
2023-05-25T12:07:32.693Z,23.82
2023-05-25T12:08:32.769Z,23.82
2023-05-25T12:09:32.405Z,23.86
2023-05-25T12:10:32.467Z,23.62
2023-05-25T12:11:32.358Z,23.40
2023-05-25T12:12:32.553Z,23.13
2023-05-25T12:13:32.345Z,23.02
2023-05-25T12:14:32.299Z,22.98
2023-05-25T12:15:32.294Z,23.06
2023-05-25T12:16:32.518Z,23.14
2023-05-25T12:17:32.450Z,23.16
2023-05-25T12:18:32.380Z,23.11
2023-05-25T12:19:32.506Z,23.17
2023-05-25T12:20:32.406Z,23.23
2023-05-25T12:21:32.253Z,23.42
2023-05-25T12:22:32.350Z,23.54
2023-05-25T12:23:32.289Z,23.67
2023-05-25T12:24:32.180Z,23.62
2023-05-25T12:25:46.618Z,23.63
2023-05-25T12:26:32.360Z,23.76
2023-05-25T12:27:32.184Z,23.74
2023-05-25T12:28:32.255Z,23.82
2023-05-25T12:29:32.166Z,23.79
2023-05-25T12:30:32.360Z,23.79
2023-05-25T12:31:32.240Z,23.70
2023-05-25T12:32:32.207Z,23.63
2023-05-25T12:33:32.141Z,23.62
2023-05-25T12:34:32.064Z,23.37
2023-05-25T12:35:32.102Z,23.23
2023-05-25T12:36:32.032Z,23.13
2023-05-25T12:37:32.009Z,23.11
2023-05-25T12:38:32.112Z,23.16
2023-05-25T12:39:32.302Z,23.16
2023-05-25T12:40:32.012Z,23.28
2023-05-25T12:41:32.276Z,23.34
2023-05-25T12:42:32.067Z,23.37
2023-05-25T12:43:31.927Z,23.37
2023-05-25T12:44:32.164Z,23.25
2023-05-25T12:45:33.284Z,23.21
2023-05-25T12:46:32.080Z,23.34
2023-05-25T12:47:31.961Z,23.37
2023-05-25T12:48:32.087Z,23.42
2023-05-25T12:49:31.875Z,23.45
2023-05-25T12:50:32.742Z,23.39
2023-05-25T12:51:31.864Z,23.36
2023-05-25T12:52:32.066Z,23.25